Time,TemperatureF,DewpointF,PressureIn,WindDirection,WindDirectionDegrees,WindSpeedMPH,WindSpeedGustMPH,Humidity,HourlyPrecipIn,Conditions,Clouds,dailyrainin,SoftwareType,DateUTC
2013-04-23 00:03:00,44.0,34.0,-100.00,SSE,164,10.0,15.0,67,0.00,,,0.00,,2013-04-23 04:03:00,
2013-04-23 00:13:00,44.0,34.0,-100.00,SSE,164,10.0,15.0,67,0.00,,,0.00,,2013-04-23 04:13:00,
2013-04-23 00:23:00,44.0,34.0,-100.00,SSE,164,11.0,16.0,67,0.00,,,0.00,,2013-04-23 04:23:00,
2013-04-23 00:33:00,44.0,34.0,-100.00,SSE,160,10.0,14.0,68,0.00,,,0.00,,2013-04-23 04:33:00,
2013-04-23 00:43:00,44.0,34.0,-100.00,SSE,160,10.0,14.0,68,0.00,,,0.00,,2013-04-23 04:43:00,
2013-04-23 00:53:00,43.0,34.0,-100.00,SSE,161,10.0,14.0,68,0.00,,,0.00,,2013-04-23 04:53:00,
2013-04-23 01:02:00,43.0,34.0,-100.00,SSE,162,10.0,14.0,69,0.00,,,0.00,,2013-04-23 05:02:00,
2013-04-23 01:12:00,43.0,34.0,-100.00,SSE,162,10.0,14.0,69,0.00,,,0.00,,2013-04-23 05:12:00,
2013-04-23 01:22:00,43.0,34.0,-100.00,SSE,165,8.0,14.0,69,0.00,,,0.00,,2013-04-23 05:22:00,
2013-04-23 01:32:00,43.0,33.0,-100.00,SSE,167,9.0,12.0,70,0.00,,,0.00,,2013-04-23 05:32:00,
2013-04-23 01:42:00,43.0,33.0,-100.00,SSE,167,9.0,12.0,70,0.00,,,0.00,,2013-04-23 05:42:00,
2013-04-23 01:52:00,43.0,33.0,-100.00,SSE,167,9.0,14.0,69,0.00,,,0.00,,2013-04-23 05:52:00,
2013-04-23 02:02:00,43.0,33.0,-100.00,SSE,165,8.0,12.0,69,0.00,,,0.00,,2013-04-23 06:02:00,
2013-04-23 02:12:00,43.0,33.0,-100.00,SSE,165,8.0,12.0,69,0.00,,,0.00,,2013-04-23 06:12:00,
2013-04-23 02:22:00,42.0,33.0,-100.00,SSE,160,8.0,13.0,69,0.00,,,0.00,,2013-04-23 06:22:00,
2013-04-23 02:33:00,42.0,33.0,-100.00,SSE,161,9.0,14.0,70,0.00,,,0.00,,2013-04-23 06:33:00,
2013-04-23 02:42:00,42.0,33.0,-100.00,SSE,161,9.0,14.0,70,0.00,,,0.00,,2013-04-23 06:42:00,
2013-04-23 02:52:00,42.0,33.0,-100.00,SSE,164,9.0,13.0,69,0.00,,,0.00,,2013-04-23 06:52:00,
2013-04-23 03:02:00,41.0,33.0,-100.00,SSE,165,8.0,13.0,70,0.00,,,0.00,,2013-04-23 07:02:00,
2013-04-23 03:11:00,41.0,33.0,-100.00,SSE,165,8.0,13.0,70,0.00,,,0.00,,2013-04-23 07:11:00,
2013-04-23 03:22:00,41.0,33.0,-100.00,SE,145,4.0,10.0,73,0.00,,,0.00,,2013-04-23 07:22:00,
2013-04-23 03:32:00,41.0,33.0,-100.00,SE,141,5.0,8.0,73,0.00,,,0.00,,2013-04-23 07:32:00,
2013-04-23 03:42:00,41.0,33.0,-100.00,SE,141,5.0,8.0,73,0.00,,,0.00,,2013-04-23 07:42:00,
2013-04-23 03:52:00,42.0,33.0,-100.00,SSE,150,4.0,8.0,73,0.00,,,0.00,,2013-04-23 07:52:00,
2013-04-23 04:02:00,42.0,33.0,-100.00,SSE,160,6.0,10.0,71,0.00,,,0.00,,2013-04-23 08:02:00,
2013-04-23 04:11:00,42.0,33.0,-100.00,SSE,160,6.0,10.0,71,0.00,,,0.00,,2013-04-23 08:11:00,
2013-04-23 04:22:00,42.0,34.0,-100.00,SSE,157,6.0,11.0,72,0.00,,,0.00,,2013-04-23 08:22:00,
2013-04-23 04:32:00,42.0,34.0,-100.00,SSE,164,5.0,8.0,72,0.00,,,0.00,,2013-04-23 08:32:00,
2013-04-23 04:42:00,42.0,34.0,-100.00,SSE,164,5.0,8.0,72,0.00,,,0.00,,2013-04-23 08:42:00,
2013-04-23 04:52:00,42.0,34.0,-100.00,SSE,161,4.0,9.0,74,0.00,,,0.00,,2013-04-23 08:52:00,
2013-04-23 05:02:00,41.0,34.0,-100.00,SE,145,3.0,7.0,76,0.00,,,0.00,,2013-04-23 09:02:00,
2013-04-23 05:11:00,41.0,34.0,-100.00,SE,145,3.0,7.0,76,0.00,,,0.00,,2013-04-23 09:11:00,
2013-04-23 05:22:00,41.0,34.0,-100.00,SSW,209,1.0,2.0,77,0.00,,,0.00,,2013-04-23 09:22:00,
2013-04-23 05:33:00,41.0,34.0,-100.00,NNW,346,0.0,1.0,77,0.00,,,0.00,,2013-04-23 09:33:00,
2013-04-23 05:43:00,41.0,34.0,-100.00,NNW,346,0.0,1.0,77,0.00,,,0.00,,2013-04-23 09:43:00,
2013-04-23 05:53:00,40.0,34.0,-100.00,NNW,346,1.0,2.0,78,0.00,,,0.00,,2013-04-23 09:53:00,
2013-04-23 06:03:00,40.0,34.0,-100.00,NNW,335,2.0,4.0,80,0.00,,,0.00,,2013-04-23 10:03:00,
2013-04-23 06:13:00,40.0,34.0,-100.00,NNW,335,2.0,4.0,80,0.00,,,0.00,,2013-04-23 10:13:00,
2013-04-23 06:23:00,40.0,34.0,-100.00,NNW,335,1.0,2.0,80,0.00,,,0.00,,2013-04-23 10:23:00,
2013-04-23 06:33:00,39.0,34.0,-100.00,North,357,1.0,3.0,82,0.00,,,0.00,,2013-04-23 10:33:00,
2013-04-23 06:42:00,39.0,34.0,-100.00,North,357,1.0,3.0,82,0.00,,,0.00,,2013-04-23 10:42:00,
2013-04-23 06:53:00,39.0,35.0,-100.00,NNW,329,2.0,4.0,83,0.00,,,0.00,,2013-04-23 10:53:00,
2013-04-23 07:03:00,39.0,35.0,-100.00,NNW,339,2.0,4.0,85,0.00,,,0.00,,2013-04-23 11:03:00,
2013-04-23 07:12:00,39.0,35.0,-100.00,NNW,339,2.0,4.0,85,0.00,,,0.00,,2013-04-23 11:12:00,
2013-04-23 07:22:00,39.0,35.0,-100.00,NNW,337,2.0,3.0,85,0.00,,,0.00,,2013-04-23 11:22:00,
2013-04-23 07:32:00,39.0,35.0,-100.00,NNW,342,1.0,3.0,84,0.00,,,0.00,,2013-04-23 11:32:00,
2013-04-23 07:43:00,39.0,35.0,-100.00,NNW,342,1.0,3.0,84,0.00,,,0.00,,2013-04-23 11:43:00,
2013-04-23 07:53:00,39.0,35.0,-100.00,NNW,336,2.0,4.0,84,0.00,,,0.00,,2013-04-23 11:53:00,
2013-04-23 08:02:00,39.0,35.0,-100.00,NNW,330,3.0,5.0,84,0.00,,,0.00,,2013-04-23 12:02:00,
2013-04-23 08:12:00,39.0,35.0,-100.00,NNW,330,3.0,5.0,84,0.00,,,0.00,,2013-04-23 12:12:00,
2013-04-23 08:22:00,39.0,35.0,-100.00,NW,323,3.0,6.0,84,0.00,,,0.00,,2013-04-23 12:22:00,
2013-04-23 08:32:00,40.0,35.0,-100.00,NW,323,3.0,5.0,83,0.00,,,0.00,,2013-04-23 12:32:00,
2013-04-23 08:42:00,40.0,35.0,-100.00,NW,323,3.0,5.0,83,0.00,,,0.00,,2013-04-23 12:42:00,
2013-04-23 08:52:00,40.0,35.0,-100.00,NW,320,3.0,4.0,83,0.00,,,0.00,,2013-04-23 12:52:00,
2013-04-23 09:01:00,41.0,36.0,-100.00,NW,318,2.0,4.0,83,0.00,,,0.00,,2013-04-23 13:01:00,
2013-04-23 09:12:00,41.0,36.0,-100.00,NW,318,2.0,4.0,83,0.00,,,0.00,,2013-04-23 13:12:00,
2013-04-23 09:22:00,41.0,36.0,-100.00,NNW,337,1.0,3.0,81,0.00,,,0.00,,2013-04-23 13:22:00,
2013-04-23 09:32:00,42.0,36.0,-100.00,NW,319,2.0,4.0,81,0.00,,,0.00,,2013-04-23 13:32:00,
2013-04-23 09:42:00,42.0,36.0,-100.00,NW,319,2.0,4.0,81,0.00,,,0.00,,2013-04-23 13:42:00,
2013-04-23 09:52:00,42.0,37.0,-100.00,NW,309,2.0,4.0,83,0.00,,,0.00,,2013-04-23 13:52:00,
2013-04-23 10:02:00,43.0,37.0,-100.00,West,281,1.0,5.0,79,0.00,,,0.00,,2013-04-23 14:02:00,
2013-04-23 10:11:00,43.0,37.0,-100.00,West,281,1.0,5.0,79,0.00,,,0.00,,2013-04-23 14:11:00,
2013-04-23 10:22:00,43.0,38.0,-100.00,South,181,4.0,8.0,85,0.00,,,0.00,,2013-04-23 14:22:00,
2013-04-23 10:32:00,44.0,39.0,-100.00,SSE,157,5.0,11.0,84,0.00,,,0.00,,2013-04-23 14:32:00,
2013-04-23 10:42:00,44.0,39.0,-100.00,SSE,157,5.0,11.0,84,0.00,,,0.00,,2013-04-23 14:42:00,
2013-04-23 10:52:00,44.0,38.0,-100.00,SE,144,7.0,10.0,82,0.00,,,0.00,,2013-04-23 14:52:00,
2013-04-23 11:01:00,44.0,39.0,-100.00,SSE,150,5.0,8.0,83,0.00,,,0.00,,2013-04-23 15:01:00,
2013-04-23 11:12:00,44.0,39.0,-100.00,SSE,150,5.0,8.0,83,0.00,,,0.00,,2013-04-23 15:12:00,
2013-04-23 11:22:00,44.0,39.0,-100.00,SSE,154,6.0,11.0,81,0.00,,,0.00,,2013-04-23 15:22:00,
2013-04-23 11:32:00,44.0,38.0,-100.00,SE,145,5.0,11.0,80,0.00,,,0.00,,2013-04-23 15:32:00,
2013-04-23 11:43:00,44.0,38.0,-100.00,SE,145,5.0,11.0,80,0.00,,,0.00,,2013-04-23 15:43:00,
2013-04-23 11:53:00,44.0,38.0,-100.00,SSE,155,6.0,10.0,79,0.00,,,0.00,,2013-04-23 15:53:00,
2013-04-23 12:03:00,44.0,38.0,-100.00,SSE,154,6.0,11.0,79,0.00,,,0.00,,2013-04-23 16:03:00,
2013-04-23 12:12:00,44.0,38.0,-100.00,SSE,154,6.0,11.0,79,0.00,,,0.00,,2013-04-23 16:12:00,
2013-04-23 12:23:00,46.0,40.0,-100.00,SSE,152,7.0,11.0,79,0.00,,,0.00,,2013-04-23 16:23:00,
2013-04-23 12:34:00,45.0,39.0,-100.00,SSE,148,4.0,7.0,79,0.00,,,0.00,,2013-04-23 16:34:00,
2013-04-23 12:43:00,45.0,39.0,-100.00,SSE,148,4.0,7.0,79,0.00,,,0.00,,2013-04-23 16:43:00,
2013-04-23 12:53:00,45.0,39.0,-100.00,South,179,3.0,7.0,79,0.00,,,0.00,,2013-04-23 16:53:00,
2013-04-23 13:02:00,46.0,40.0,-100.00,SSE,152,6.0,9.0,79,0.00,,,0.00,,2013-04-23 17:02:00,
2013-04-23 13:12:00,46.0,40.0,-100.00,SSE,152,6.0,9.0,79,0.00,,,0.00,,2013-04-23 17:12:00,
2013-04-23 13:22:00,45.0,38.0,-100.00,SSE,164,5.0,8.0,77,0.00,,,0.00,,2013-04-23 17:22:00,
2013-04-23 13:33:00,46.0,39.0,-100.00,SSE,147,5.0,8.0,75,0.00,,,0.00,,2013-04-23 17:33:00,
2013-04-23 13:43:00,46.0,39.0,-100.00,SSE,147,5.0,8.0,75,0.00,,,0.00,,2013-04-23 17:43:00,
2013-04-23 13:53:00,48.0,40.0,-100.00,SSE,148,4.0,7.0,75,0.00,,,0.00,,2013-04-23 17:53:00,
2013-04-23 14:02:00,49.0,40.0,-100.00,SSE,157,6.0,10.0,72,0.00,,,0.00,,2013-04-23 18:02:00,
2013-04-23 14:12:00,49.0,40.0,-100.00,SSE,157,6.0,10.0,72,0.00,,,0.00,,2013-04-23 18:12:00,
2013-04-23 14:22:00,49.0,40.0,-100.00,SSE,151,8.0,12.0,72,0.00,,,0.00,,2013-04-23 18:22:00,
2013-04-23 14:32:00,50.0,40.0,-100.00,SSE,152,6.0,12.0,68,0.00,,,0.00,,2013-04-23 18:32:00,
2013-04-23 14:42:00,50.0,40.0,-100.00,SSE,152,6.0,12.0,68,0.00,,,0.00,,2013-04-23 18:42:00,
2013-04-23 14:52:00,52.0,41.0,-100.00,SE,141,7.0,13.0,68,0.00,,,0.00,,2013-04-23 18:52:00,
2013-04-23 15:02:00,52.0,41.0,-100.00,SSE,155,8.0,13.0,66,0.00,,,0.00,,2013-04-23 19:02:00,
2013-04-23 15:11:00,52.0,41.0,-100.00,SSE,155,8.0,13.0,66,0.00,,,0.00,,2013-04-23 19:11:00,
2013-04-23 15:22:00,51.0,40.0,-100.00,SE,145,9.0,15.0,65,0.00,,,0.00,,2013-04-23 19:22:00,
2013-04-23 15:32:00,53.0,41.0,-100.00,SSE,155,9.0,14.0,64,0.00,,,0.00,,2013-04-23 19:32:00,
2013-04-23 15:42:00,53.0,41.0,-100.00,SSE,155,9.0,14.0,64,0.00,,,0.00,,2013-04-23 19:42:00,
2013-04-23 15:52:00,53.0,41.0,-100.00,SSE,152,10.0,15.0,64,0.00,,,0.00,,2013-04-23 19:52:00,
2013-04-23 16:02:00,53.0,41.0,-100.00,SSE,161,8.0,11.0,64,0.00,,,0.00,,2013-04-23 20:02:00,
2013-04-23 16:11:00,53.0,41.0,-100.00,SSE,161,8.0,11.0,64,0.00,,,0.00,,2013-04-23 20:11:00,
2013-04-23 16:22:00,53.0,42.0,-100.00,SE,141,8.0,13.0,66,0.00,,,0.00,,2013-04-23 20:22:00,
2013-04-23 16:32:00,54.0,42.0,-100.00,SSE,155,6.0,15.0,63,0.00,,,0.00,,2013-04-23 20:32:00,
2013-04-23 16:42:00,54.0,42.0,-100.00,SSE,155,6.0,15.0,63,0.00,,,0.00,,2013-04-23 20:42:00,
2013-04-23 16:52:00,54.0,42.0,-100.00,SSE,155,9.0,15.0,64,0.00,,,0.00,,2013-04-23 20:52:00,
2013-04-23 17:02:00,55.0,42.0,-100.00,SSE,147,9.0,15.0,63,0.00,,,0.00,,2013-04-23 21:02:00,
2013-04-23 17:12:00,55.0,42.0,-100.00,SSE,147,9.0,15.0,63,0.00,,,0.00,,2013-04-23 21:12:00,
2013-04-23 17:22:00,54.0,42.0,-100.00,SSE,150,9.0,13.0,62,0.00,,,0.00,,2013-04-23 21:22:00,
2013-04-23 17:33:00,54.0,42.0,-100.00,SE,134,8.0,13.0,62,0.00,,,0.00,,2013-04-23 21:33:00,
2013-04-23 17:43:00,54.0,42.0,-100.00,SE,134,8.0,13.0,62,0.00,,,0.00,,2013-04-23 21:43:00,
2013-04-23 17:53:00,55.0,42.0,-100.00,SSE,152,9.0,14.0,60,0.00,,,0.00,,2013-04-23 21:53:00,
2013-04-23 18:03:00,55.0,42.0,-100.00,SE,144,9.0,13.0,61,0.00,,,0.00,,2013-04-23 22:03:00,
2013-04-23 18:12:00,55.0,42.0,-100.00,SE,144,9.0,13.0,61,0.00,,,0.00,,2013-04-23 22:12:00,
2013-04-23 18:23:00,55.0,42.0,-100.00,SSE,148,8.0,13.0,62,0.00,,,0.00,,2013-04-23 22:23:00,
2013-04-23 18:33:00,55.0,42.0,-100.00,SSE,152,5.0,9.0,61,0.00,,,0.00,,2013-04-23 22:33:00,
2013-04-23 18:42:00,55.0,42.0,-100.00,SSE,152,5.0,9.0,61,0.00,,,0.00,,2013-04-23 22:42:00,
2013-04-23 18:52:00,55.0,42.0,-100.00,SSE,160,5.0,9.0,62,0.00,,,0.00,,2013-04-23 22:52:00,
2013-04-23 19:03:00,54.0,42.0,-100.00,SSE,147,6.0,10.0,61,0.00,,,0.00,,2013-04-23 23:03:00,
2013-04-23 19:12:00,54.0,42.0,-100.00,SSE,147,6.0,10.0,61,0.00,,,0.00,,2013-04-23 23:12:00,
2013-04-23 19:22:00,54.0,42.0,-100.00,SSE,147,6.0,9.0,62,0.00,,,0.00,,2013-04-23 23:22:00,
2013-04-23 19:32:00,54.0,42.0,-100.00,SSE,147,8.0,12.0,63,0.00,,,0.00,,2013-04-23 23:32:00,
2013-04-23 19:42:00,54.0,42.0,-100.00,SSE,147,8.0,12.0,63,0.00,,,0.00,,2013-04-23 23:42:00,
2013-04-23 19:52:00,53.0,42.0,-100.00,SE,141,7.0,10.0,65,0.00,,,0.00,,2013-04-23 23:52:00,
2013-04-23 20:02:00,52.0,42.0,-100.00,SE,143,8.0,10.0,69,0.00,,,0.00,,2013-04-24 00:02:00,
2013-04-23 20:11:00,52.0,42.0,-100.00,SE,143,8.0,10.0,69,0.00,,,0.00,,2013-04-24 00:11:00,
2013-04-23 20:22:00,51.0,42.0,-100.00,SE,144,7.0,9.0,71,0.00,,,0.00,,2013-04-24 00:22:00,
2013-04-23 20:32:00,51.0,42.0,-100.00,SE,144,7.0,9.0,73,0.00,,,0.00,,2013-04-24 00:32:00,
2013-04-23 20:42:00,51.0,42.0,-100.00,SE,144,7.0,9.0,73,0.00,,,0.00,,2013-04-24 00:42:00,
2013-04-23 20:52:00,50.0,42.0,-100.00,SE,137,6.0,8.0,74,0.00,,,0.00,,2013-04-24 00:52:00,
2013-04-23 21:02:00,50.0,42.0,-100.00,SE,134,6.0,9.0,76,0.00,,,0.00,,2013-04-24 01:02:00,
2013-04-23 21:12:00,50.0,42.0,-100.00,SE,134,6.0,9.0,76,0.00,,,0.00,,2013-04-24 01:12:00,
2013-04-23 21:21:00,49.0,42.0,-100.00,SE,140,5.0,8.0,79,0.00,,,0.00,,2013-04-24 01:21:00,
2013-04-23 21:32:00,49.0,43.0,-100.00,SE,145,6.0,9.0,80,0.00,,,0.00,,2013-04-24 01:32:00,
2013-04-23 21:42:00,49.0,43.0,-100.00,SE,145,6.0,9.0,80,0.00,,,0.00,,2013-04-24 01:42:00,
2013-04-23 21:52:00,48.0,42.0,-100.00,SE,134,7.0,9.0,78,0.00,,,0.00,,2013-04-24 01:52:00,
2013-04-23 22:02:00,49.0,43.0,-100.00,SE,137,7.0,9.0,80,0.00,,,0.00,,2013-04-24 02:02:00,
2013-04-23 22:20:00,49.0,43.0,-100.00,SE,137,7.0,9.0,80,0.00,,,0.00,,2013-04-24 02:20:00,
2013-04-23 22:30:00,46.0,41.0,-100.00,SE,137,7.0,9.0,83,0.00,,,0.00,,2013-04-24 02:30:00,
2013-04-23 22:41:00,47.0,42.0,-100.00,SE,138,6.0,9.0,82,0.00,,,0.00,,2013-04-24 02:41:00,
2013-04-23 22:49:00,47.0,42.0,-100.00,SE,138,6.0,9.0,82,0.00,,,0.00,,2013-04-24 02:49:00,
2013-04-23 23:01:00,46.0,42.0,-100.00,SE,144,8.0,10.0,84,0.00,,,0.00,,2013-04-24 03:01:00,
2013-04-23 23:11:00,46.0,42.0,-100.00,SE,144,7.0,8.0,86,0.00,,,0.00,,2013-04-24 03:11:00,
2013-04-23 23:18:00,46.0,42.0,-100.00,SE,144,7.0,8.0,86,0.00,,,0.00,,2013-04-24 03:18:00,
2013-04-23 23:32:00,46.0,42.0,-100.00,SE,138,7.0,9.0,85,0.00,,,0.00,,2013-04-24 03:32:00,
2013-04-23 23:42:00,47.0,42.0,-100.00,SE,138,6.0,10.0,84,0.00,,,0.00,,2013-04-24 03:42:00,